createdAt,value
2018-09-20T00:00:59.218Z,99.90
2018-09-20T00:03:27.927Z,99.90
2018-09-20T00:05:56.630Z,99.90
2018-09-20T00:08:25.467Z,99.90
2018-09-20T00:10:53.938Z,99.90
2018-09-20T00:13:22.636Z,99.90
2018-09-20T00:15:51.332Z,99.90
2018-09-20T00:18:19.830Z,99.90
2018-09-20T00:20:48.384Z,99.90
2018-09-20T00:23:16.948Z,99.90
2018-09-20T00:25:45.479Z,99.90
2018-09-20T00:28:14.133Z,99.90
2018-09-20T00:30:42.773Z,99.90
2018-09-20T00:33:11.666Z,99.90
2018-09-20T00:35:40.874Z,99.90
2018-09-20T00:38:09.421Z,99.90
2018-09-20T00:40:37.986Z,99.90
2018-09-20T00:43:06.624Z,99.90
2018-09-20T00:45:35.139Z,99.90
2018-09-20T00:48:03.756Z,99.90
2018-09-20T00:50:34.760Z,99.90
2018-09-20T00:53:03.482Z,99.90
2018-09-20T00:55:32.111Z,99.90
2018-09-20T00:58:00.713Z,99.90
2018-09-20T01:00:29.280Z,99.90
2018-09-20T01:02:57.891Z,99.90
2018-09-20T01:05:26.446Z,99.90
2018-09-20T01:07:55.464Z,99.90
2018-09-20T01:10:24.960Z,99.90
2018-09-20T01:12:53.587Z,99.90
2018-09-20T01:15:22.407Z,99.90
2018-09-20T01:17:51.028Z,99.90
2018-09-20T01:20:19.642Z,99.90
2018-09-20T01:22:48.181Z,99.90
2018-09-20T01:25:16.693Z,99.90
2018-09-20T01:27:45.285Z,99.90
2018-09-20T01:30:13.836Z,99.90
2018-09-20T01:32:42.455Z,99.90
2018-09-20T01:35:11.057Z,99.90
2018-09-20T01:37:39.649Z,99.90
2018-09-20T01:40:08.260Z,99.90
2018-09-20T01:42:36.954Z,99.90
2018-09-20T01:45:06.016Z,99.90
2018-09-20T01:47:34.606Z,99.90
2018-09-20T01:50:03.121Z,99.90
2018-09-20T01:52:31.634Z,99.90
2018-09-20T01:55:00.155Z,99.90
2018-09-20T01:57:28.637Z,99.90
2018-09-20T01:59:57.140Z,99.90
2018-09-20T02:02:25.631Z,99.90
2018-09-20T02:04:54.184Z,99.90
2018-09-20T02:07:22.906Z,99.90
2018-09-20T02:09:51.582Z,99.90
2018-09-20T02:12:20.089Z,99.90
2018-09-20T02:14:48.656Z,99.90
2018-09-20T02:17:17.361Z,99.90
2018-09-20T02:19:46.053Z,99.90
2018-09-20T02:22:14.661Z,99.90
2018-09-20T02:24:43.365Z,99.90
2018-09-20T02:27:12.040Z,99.90
2018-09-20T02:29:40.959Z,99.90
2018-09-20T02:32:09.776Z,99.90
2018-09-20T02:34:38.554Z,99.90
2018-09-20T02:37:07.197Z,99.90
2018-09-20T02:39:35.762Z,99.90
2018-09-20T02:42:04.322Z,99.90
2018-09-20T02:44:32.771Z,99.90
2018-09-20T02:47:01.285Z,99.90
2018-09-20T02:49:29.961Z,99.90
2018-09-20T02:51:58.491Z,99.90
2018-09-20T02:54:27.038Z,99.90
2018-09-20T02:56:55.669Z,99.90
2018-09-20T02:59:24.492Z,99.90
2018-09-20T03:01:53.362Z,99.90
2018-09-20T03:04:22.153Z,99.90
2018-09-20T03:06:50.980Z,99.90
2018-09-20T03:09:19.737Z,99.90
2018-09-20T03:11:48.618Z,99.90
2018-09-20T03:14:17.467Z,99.90
2018-09-20T03:16:46.223Z,99.90
2018-09-20T03:19:15.160Z,99.90
2018-09-20T03:21:43.956Z,99.90
2018-09-20T03:24:12.467Z,99.90
2018-09-20T03:26:41.145Z,99.90
2018-09-20T03:29:09.841Z,99.90
2018-09-20T03:31:38.500Z,99.90
2018-09-20T03:34:07.018Z,99.90
2018-09-20T03:36:35.580Z,99.90
2018-09-20T03:39:06.426Z,99.90
2018-09-20T03:41:34.929Z,99.90
2018-09-20T03:44:03.515Z,99.90
2018-09-20T03:46:32.242Z,99.90
2018-09-20T03:49:01.089Z,99.90
2018-09-20T03:51:29.650Z,99.90
2018-09-20T03:53:58.127Z,99.90
2018-09-20T03:56:26.701Z,99.90
2018-09-20T03:58:55.213Z,99.90
2018-09-20T04:01:23.758Z,99.90
2018-09-20T04:03:52.389Z,99.90
2018-09-20T04:06:21.018Z,99.90
2018-09-20T04:08:49.509Z,99.90
2018-09-20T04:11:18.100Z,99.90
2018-09-20T04:13:46.968Z,99.90
2018-09-20T04:16:15.755Z,99.90
2018-09-20T04:18:44.379Z,99.90
2018-09-20T04:21:16.869Z,99.90
2018-09-20T04:23:45.476Z,99.90
2018-09-20T04:26:14.206Z,99.90
2018-09-20T04:28:43.103Z,99.90
2018-09-20T04:31:11.859Z,99.90
2018-09-20T04:33:40.603Z,99.90
2018-09-20T04:36:09.395Z,99.90
2018-09-20T04:38:39.014Z,99.90
2018-09-20T04:41:08.962Z,99.90
2018-09-20T04:43:37.583Z,99.90
2018-09-20T04:46:06.567Z,99.90
2018-09-20T04:48:35.700Z,99.90
2018-09-20T04:51:04.627Z,99.90
2018-09-20T04:53:33.895Z,99.90
2018-09-20T04:56:03.471Z,99.90
2018-09-20T04:58:32.907Z,99.90
2018-09-20T05:01:02.072Z,99.90
2018-09-20T05:03:31.103Z,99.90
2018-09-20T05:06:00.414Z,99.90
2018-09-20T05:08:29.489Z,99.90
2018-09-20T05:10:59.035Z,99.90
2018-09-20T05:13:28.940Z,99.90
2018-09-20T05:15:59.314Z,99.90
2018-09-20T05:18:28.435Z,99.90
2018-09-20T05:20:57.377Z,99.90
2018-09-20T05:23:26.373Z,99.90
2018-09-20T05:25:56.787Z,99.90
2018-09-20T05:28:25.643Z,99.90
2018-09-20T05:30:54.426Z,99.90
2018-09-20T05:33:23.262Z,99.90
2018-09-20T05:35:52.032Z,99.90
2018-09-20T05:38:20.768Z,99.90
2018-09-20T05:40:49.746Z,99.90
2018-09-20T05:43:18.710Z,99.90
2018-09-20T05:45:47.799Z,99.90
2018-09-20T05:48:17.119Z,99.90
2018-09-20T05:50:46.269Z,99.90
2018-09-20T05:53:16.374Z,99.90
2018-09-20T05:55:45.344Z,99.90
2018-09-20T05:58:15.088Z,99.90
2018-09-20T06:00:43.977Z,99.90
2018-09-20T06:03:12.901Z,99.90
2018-09-20T06:05:41.973Z,99.90
2018-09-20T06:08:11.086Z,99.90
2018-09-20T06:10:44.798Z,99.90
2018-09-20T06:16:13.216Z,99.90
2018-09-20T06:18:43.174Z,99.90
2018-09-20T06:21:16.789Z,99.90
2018-09-20T06:23:45.870Z,99.90
2018-09-20T06:26:15.002Z,99.90
2018-09-20T06:28:44.139Z,99.90
2018-09-20T06:31:14.497Z,99.90
2018-09-20T06:33:43.541Z,99.90
2018-09-20T06:36:13.031Z,99.90
2018-09-20T06:38:42.275Z,99.90
2018-09-20T06:41:14.742Z,99.90
2018-09-20T06:43:57.514Z,99.90
2018-09-20T06:46:27.301Z,99.90
2018-09-20T06:48:56.363Z,99.90
2018-09-20T06:51:25.638Z,99.90
2018-09-20T06:53:54.918Z,99.90
2018-09-20T06:56:24.270Z,99.90
2018-09-20T06:58:53.829Z,99.90
2018-09-20T07:01:27.089Z,99.90
2018-09-20T07:03:56.796Z,99.90
2018-09-20T07:06:26.270Z,99.90
2018-09-20T07:08:55.607Z,99.90
2018-09-20T07:11:24.664Z,99.90
2018-09-20T07:13:54.203Z,99.90
2018-09-20T07:16:23.396Z,99.90
2018-09-20T07:18:52.617Z,99.90
2018-09-20T07:21:21.736Z,99.90
2018-09-20T07:23:56.894Z,99.90
2018-09-20T07:26:26.352Z,99.90
2018-09-20T07:28:56.053Z,99.90
2018-09-20T07:31:25.240Z,99.90
2018-09-20T07:33:54.357Z,99.90
2018-09-20T07:36:23.497Z,99.90
2018-09-20T07:44:00.614Z,99.90
2018-09-20T07:46:29.735Z,99.90
2018-09-20T07:48:59.235Z,99.90
2018-09-20T07:51:28.510Z,99.90
2018-09-20T07:53:57.955Z,96.70
2018-09-20T07:56:27.287Z,95.50
2018-09-20T07:58:56.863Z,94.30
2018-09-20T08:01:26.190Z,91.90
2018-09-20T08:03:57.341Z,91.70
2018-09-20T08:06:28.143Z,93.40
2018-09-20T08:08:57.377Z,91.50
2018-09-20T08:11:26.637Z,88.20
2018-09-20T08:13:56.062Z,84.60
2018-09-20T08:16:25.687Z,79.00
2018-09-20T08:18:56.625Z,79.20
2018-09-20T08:21:28.853Z,78.40
2018-09-20T08:23:58.162Z,78.40
2018-09-20T08:26:27.374Z,78.60
2018-09-20T08:28:56.794Z,70.50
2018-09-20T08:31:26.301Z,67.50
2018-09-20T08:33:55.804Z,70.10
2018-09-20T08:36:25.410Z,69.60
2018-09-20T08:38:54.750Z,73.70
2018-09-20T08:41:24.062Z,65.80
2018-09-20T08:43:53.108Z,65.30
2018-09-20T08:46:22.394Z,63.50
2018-09-20T08:48:51.579Z,64.80
2018-09-20T08:51:21.695Z,67.60
2018-09-20T08:53:51.200Z,68.90
2018-09-20T08:56:26.252Z,63.40
2018-09-20T08:58:55.942Z,62.10
2018-09-20T09:01:25.172Z,63.00
2018-09-20T09:03:55.264Z,64.10
2018-09-20T09:06:44.133Z,61.10
2018-09-20T09:09:13.553Z,58.40
2018-09-20T09:11:43.659Z,56.80
2018-09-20T09:14:14.612Z,62.00
2018-09-20T09:16:46.049Z,59.90
2018-09-20T09:19:16.715Z,59.40
2018-09-20T09:21:46.370Z,59.30
2018-09-20T09:24:33.009Z,55.60
2018-09-20T09:27:02.605Z,56.50
2018-09-20T09:29:32.004Z,56.00
2018-09-20T09:32:17.809Z,57.90
2018-09-20T09:34:47.579Z,56.50
2018-09-20T09:37:18.454Z,53.70
2018-09-20T09:39:48.945Z,54.00
2018-09-20T09:42:18.656Z,52.10
2018-09-20T09:44:48.063Z,53.50
2018-09-20T09:47:18.217Z,52.30
2018-09-20T09:49:47.414Z,54.20
2018-09-20T09:52:16.603Z,51.20
2018-09-20T09:54:45.902Z,52.40
2018-09-20T09:57:15.381Z,53.80
2018-09-20T09:59:45.676Z,54.60
2018-09-20T10:02:15.298Z,53.20
2018-09-20T10:04:44.935Z,51.10
2018-09-20T10:07:14.823Z,51.70
2018-09-20T10:10:04.571Z,52.20
2018-09-20T10:12:34.148Z,52.80
2018-09-20T10:15:14.905Z,53.40
2018-09-20T10:17:45.318Z,53.20
2018-09-20T10:20:14.802Z,49.80
2018-09-20T10:25:33.176Z,49.80
2018-09-20T10:28:02.847Z,51.10
2018-09-20T10:30:33.453Z,49.00
2018-09-20T10:33:04.992Z,48.40
2018-09-20T10:35:35.337Z,49.80
2018-09-20T10:38:05.547Z,49.90
2018-09-20T10:40:34.848Z,48.10
2018-09-20T10:43:11.283Z,50.50
2018-09-20T10:45:41.448Z,49.50
2018-09-20T11:03:58.746Z,50.70
2018-09-20T11:06:28.892Z,48.00
2018-09-20T11:09:01.404Z,46.50
2018-09-20T11:11:30.917Z,47.00
2018-09-20T11:13:59.655Z,47.30
2018-09-20T11:26:23.089Z,47.70
2018-09-20T11:32:07.965Z,47.10
2018-09-20T11:34:37.240Z,45.00
2018-09-20T11:37:19.499Z,47.10
2018-09-20T11:47:03.468Z,45.00
2018-09-20T11:49:46.387Z,45.90
2018-09-20T11:52:42.823Z,47.30
2018-09-20T11:55:23.865Z,44.80
2018-09-20T12:03:47.787Z,47.90
2018-09-20T12:06:29.991Z,44.00
2018-09-20T12:09:42.735Z,45.10
2018-09-20T12:12:27.480Z,45.10
2018-09-20T12:15:15.898Z,44.30
2018-09-20T12:17:56.864Z,47.80
2018-09-20T12:23:56.961Z,47.40
2018-09-20T12:26:30.256Z,44.40
2018-09-20T12:29:00.057Z,43.50
2018-09-20T12:31:29.462Z,44.30
2018-09-20T12:34:12.699Z,43.80
2018-09-20T12:39:18.773Z,42.60
2018-09-20T12:44:22.598Z,44.40
2018-09-20T12:47:10.942Z,44.50
2018-09-20T12:49:40.755Z,42.50
2018-09-20T12:55:13.316Z,46.00
2018-09-20T12:57:43.799Z,43.70
2018-09-20T13:19:38.781Z,41.00
2018-09-20T13:22:10.559Z,41.20
2018-09-20T13:24:42.537Z,40.40
2018-09-20T13:36:01.142Z,38.50
2018-09-20T13:38:34.027Z,40.00
2018-09-20T13:41:09.266Z,38.50
2018-09-20T13:43:41.147Z,38.10
2018-09-20T13:46:16.240Z,39.70
2018-09-20T13:48:49.858Z,38.30
2018-09-20T13:57:07.121Z,39.70
2018-09-20T13:59:45.292Z,38.90
2018-09-20T14:10:16.524Z,39.60
2018-09-20T14:12:51.359Z,39.50
2018-09-20T14:26:04.163Z,39.70
2018-09-20T14:31:43.124Z,41.10
2018-09-20T14:57:52.460Z,43.40
2018-09-20T15:00:34.314Z,45.70
2018-09-20T15:07:30.338Z,46.50
2018-09-20T15:10:03.421Z,45.30
2018-09-20T15:18:16.443Z,49.40
2018-09-20T15:20:55.142Z,50.40
2018-09-20T15:23:28.596Z,50.70
2018-09-20T15:26:05.604Z,49.60
2018-09-20T15:28:35.491Z,49.70
2018-09-20T15:31:24.345Z,48.80
2018-09-20T15:33:57.518Z,49.30
2018-09-20T15:36:32.566Z,49.10
2018-09-20T15:39:05.868Z,48.80
2018-09-20T15:41:35.613Z,50.40
2018-09-20T15:47:10.853Z,51.10
2018-09-20T15:49:42.081Z,50.80
2018-09-20T15:52:11.792Z,50.10
2018-09-20T15:54:42.302Z,50.00
2018-09-20T15:57:12.134Z,50.70
2018-09-20T15:59:42.261Z,50.50
2018-09-20T16:02:18.618Z,51.30
2018-09-20T16:04:48.125Z,51.30
2018-09-20T16:07:18.653Z,53.30
2018-09-20T16:44:33.890Z,58.20
2018-09-20T16:47:23.131Z,58.20
2018-09-20T17:02:57.089Z,64.10
2018-09-20T17:05:25.989Z,65.90
2018-09-20T17:07:55.002Z,71.10
2018-09-20T17:10:29.541Z,71.30
2018-09-20T17:13:14.574Z,72.30
2018-09-20T17:15:55.961Z,73.70
2018-09-20T17:18:47.641Z,75.50
2018-09-20T17:21:20.857Z,73.20
2018-09-20T17:27:01.052Z,78.80
2018-09-20T17:29:36.667Z,78.00
2018-09-20T17:32:16.877Z,78.00
2018-09-20T17:34:48.226Z,79.70
2018-09-20T17:37:20.109Z,80.70
2018-09-20T17:39:50.675Z,82.10
2018-09-20T17:42:22.166Z,84.30
2018-09-20T17:44:50.774Z,85.40
2018-09-20T17:47:19.525Z,87.00
2018-09-20T17:49:48.131Z,89.20
2018-09-20T17:55:03.342Z,89.70
2018-09-20T17:57:35.849Z,88.90
2018-09-20T18:00:04.586Z,90.10
2018-09-20T18:02:33.431Z,91.70
2018-09-20T18:05:02.025Z,92.20
2018-09-20T18:07:30.786Z,92.70
2018-09-20T18:09:59.424Z,93.20
2018-09-20T18:12:28.115Z,94.40
2018-09-20T18:14:56.714Z,95.10
2018-09-20T18:17:25.784Z,96.20
2018-09-20T18:19:54.638Z,97.90
2018-09-20T18:22:23.267Z,98.50
2018-09-20T18:24:51.981Z,99.40
2018-09-20T18:27:20.458Z,99.70
2018-09-20T18:29:49.099Z,99.90
2018-09-20T18:32:17.597Z,99.90
2018-09-20T18:34:46.958Z,99.90
2018-09-20T18:37:15.419Z,99.90
2018-09-20T18:39:44.446Z,99.90
2018-09-20T18:42:13.869Z,99.90
2018-09-20T18:44:42.362Z,99.90
2018-09-20T18:47:10.846Z,99.90
2018-09-20T18:49:39.362Z,99.90
2018-09-20T18:52:08.046Z,99.90
2018-09-20T18:54:36.550Z,99.90
2018-09-20T18:57:05.128Z,99.90
2018-09-20T18:59:33.680Z,99.90
2018-09-20T19:02:02.264Z,99.90
2018-09-20T19:04:30.789Z,99.90
2018-09-20T19:06:59.275Z,99.90
2018-09-20T19:14:40.862Z,99.90
2018-09-20T19:17:09.950Z,99.90
2018-09-20T19:19:39.648Z,99.90
2018-09-20T19:22:08.150Z,99.90
2018-09-20T19:24:36.838Z,99.90
2018-09-20T19:27:06.220Z,99.90
2018-09-20T19:29:34.929Z,99.90
2018-09-20T19:32:03.641Z,99.90
2018-09-20T19:34:32.571Z,99.90
2018-09-20T19:37:01.210Z,99.90
2018-09-20T19:39:30.040Z,99.90
2018-09-20T19:41:58.907Z,99.90
2018-09-20T19:44:27.567Z,99.90
2018-09-20T19:46:56.621Z,99.90
2018-09-20T19:49:25.113Z,99.90
2018-09-20T19:51:53.966Z,99.90
2018-09-20T19:54:22.479Z,99.90
2018-09-20T19:56:51.163Z,99.90
2018-09-20T19:59:26.818Z,99.90
2018-09-20T20:01:55.494Z,99.90
2018-09-20T20:04:24.929Z,99.90
2018-09-20T20:06:53.655Z,99.90
2018-09-20T20:09:22.123Z,99.90
2018-09-20T20:11:50.684Z,99.90
2018-09-20T20:14:19.305Z,99.90
2018-09-20T20:16:47.785Z,99.90
2018-09-20T20:19:16.339Z,99.90
2018-09-20T20:21:44.941Z,99.90
2018-09-20T20:24:13.552Z,99.90
2018-09-20T20:26:42.087Z,99.90
2018-09-20T20:29:10.734Z,99.90
2018-09-20T20:31:39.207Z,99.90
2018-09-20T20:34:09.165Z,99.90
2018-09-20T20:36:37.726Z,99.90
2018-09-20T20:39:08.334Z,99.90
2018-09-20T20:41:36.845Z,99.90
2018-09-20T20:44:05.365Z,99.90
2018-09-20T20:46:33.987Z,99.90
2018-09-20T20:49:02.436Z,99.90
2018-09-20T20:51:31.020Z,99.90
2018-09-20T20:54:00.899Z,99.90
2018-09-20T20:56:29.818Z,99.90
2018-09-20T20:58:59.038Z,99.90
2018-09-20T21:01:29.455Z,99.90
2018-09-20T21:03:57.934Z,99.90
2018-09-20T21:06:26.411Z,99.90
2018-09-20T21:08:54.944Z,99.90
2018-09-20T21:11:24.639Z,99.90
2018-09-20T21:13:53.578Z,99.90
2018-09-20T21:16:22.065Z,99.90
2018-09-20T21:18:50.642Z,99.90
2018-09-20T21:21:19.134Z,99.90
2018-09-20T21:23:47.782Z,99.90
2018-09-20T21:26:16.293Z,99.90
2018-09-20T21:28:44.817Z,99.90
2018-09-20T21:31:13.404Z,99.90
2018-09-20T21:33:41.947Z,99.90
2018-09-20T21:36:10.626Z,99.90
2018-09-20T21:38:39.085Z,99.90
2018-09-20T21:41:07.722Z,99.90
2018-09-20T21:43:37.052Z,99.90
2018-09-20T21:46:05.845Z,99.90
2018-09-20T21:48:34.431Z,99.90
2018-09-20T21:51:02.993Z,99.90
2018-09-20T21:53:31.548Z,99.90
2018-09-20T21:56:00.095Z,99.90
2018-09-20T21:58:28.988Z,99.90
2018-09-20T22:01:04.876Z,99.90
2018-09-20T22:03:33.915Z,99.90
2018-09-20T22:06:02.467Z,99.90
2018-09-20T22:08:30.966Z,99.90
2018-09-20T22:10:59.486Z,99.90
2018-09-20T22:13:27.981Z,99.90
2018-09-20T22:15:56.669Z,99.90
2018-09-20T22:18:25.501Z,99.90
2018-09-20T22:20:54.071Z,99.90
2018-09-20T22:23:22.566Z,99.90
2018-09-20T22:25:51.134Z,99.90
2018-09-20T22:28:19.686Z,99.90
2018-09-20T22:30:48.249Z,99.90
2018-09-20T22:33:16.779Z,99.90
2018-09-20T22:35:45.299Z,99.90
2018-09-20T22:38:13.763Z,99.90
2018-09-20T22:40:42.290Z,99.90
2018-09-20T22:43:10.842Z,99.90
2018-09-20T22:45:39.357Z,99.90
2018-09-20T22:48:07.888Z,99.90
2018-09-20T22:50:36.420Z,99.90
2018-09-20T22:53:05.420Z,99.90
2018-09-20T22:55:33.968Z,99.90
2018-09-20T22:58:02.514Z,99.90
2018-09-20T23:00:31.035Z,99.90
2018-09-20T23:02:59.502Z,99.90
2018-09-20T23:05:28.040Z,99.90
2018-09-20T23:07:56.551Z,99.90
2018-09-20T23:10:25.035Z,99.90
2018-09-20T23:12:53.570Z,99.90
2018-09-20T23:15:22.113Z,99.90
2018-09-20T23:17:50.623Z,99.90
2018-09-20T23:20:19.201Z,99.90
2018-09-20T23:22:47.710Z,99.90
2018-09-20T23:25:16.471Z,99.90
2018-09-20T23:27:44.967Z,99.90
2018-09-20T23:30:13.499Z,99.90
2018-09-20T23:32:42.058Z,99.90
2018-09-20T23:35:10.532Z,99.90
2018-09-20T23:37:39.030Z,99.90
2018-09-20T23:40:07.578Z,99.90
2018-09-20T23:42:36.117Z,99.90
2018-09-20T23:45:04.763Z,99.90
2018-09-20T23:47:33.395Z,99.90
2018-09-20T23:50:01.992Z,99.90
2018-09-20T23:52:30.486Z,99.90
2018-09-20T23:54:58.994Z,99.90
2018-09-20T23:57:27.630Z,99.90
2018-09-20T23:59:56.397Z,99.90
